Time;durP1;ratioP1;P1;durP2;ratioP2;P2;SDS_P1;SDS_P2;PMS_P1;PMS_P2;Temp;Humidity;BMP_temperature;BMP_pressure;BME280_temperature;BME280_humidity;BME280_pressure;Samples;Min_cycle;Max_cycle;Signal;HPM_P1;HPM_P2
2022/04/01 00:01:29;;;;;;;6.65;4.40;;;;;;;11.37;79.23;98836.41;4987778;28;20046;-84
2022/04/01 00:03:56;;;;;;;4.60;3.85;;;;;;;11.19;78.31;98808.38;4988500;28;20050;-83
2022/04/01 00:06:22;;;;;;;3.70;3.40;;;;;;;10.80;78.44;98747.56;4988285;28;20144;-82
2022/04/01 00:08:49;;;;;;;4.60;3.50;;;;;;;11.40;77.93;98828.06;4988653;28;20073;-83
2022/04/01 00:11:16;;;;;;;4.00;3.60;;;;;;;11.16;78.61;98807.91;4988550;28;20052;-84
2022/04/01 00:13:42;;;;;;;4.93;3.45;;;;;;;11.24;79.08;98815.81;4996389;28;20057;-83
2022/04/01 00:16:09;;;;;;;3.40;3.15;;;;;;;11.03;80.01;98797.94;5008173;28;20058;-82
2022/04/01 00:18:36;;;;;;;4.15;3.38;;;;;;;10.98;79.88;98787.06;5007789;28;20061;-83
2022/04/01 00:21:03;;;;;;;3.70;3.40;;;;;;;11.16;79.65;98819.34;5026370;28;20472;-85
2022/04/01 00:23:29;;;;;;;4.03;3.63;;;;;;;11.00;80.07;98799.13;5029017;28;20042;-85
2022/04/01 00:25:56;;;;;;;4.25;3.53;;;;;;;10.91;79.83;98790.44;5014846;28;20507;-84
2022/04/01 00:28:23;;;;;;;3.70;3.30;;;;;;;10.74;79.87;98764.25;5028062;28;20038;-85
2022/04/01 00:30:49;;;;;;;4.50;3.45;;;;;;;10.87;79.97;98797.13;5032381;28;20085;-85
2022/04/01 00:33:17;;;;;;;5.00;3.15;;;;;;;10.89;80.03;98797.75;5011683;28;20048;-84
2022/04/01 00:35:44;;;;;;;5.35;3.60;;;;;;;10.89;80.31;98797.75;5008965;28;20054;-85
2022/04/01 00:38:11;;;;;;;3.65;3.35;;;;;;;10.97;80.50;98811.94;5009799;28;20077;-84
2022/04/01 00:40:39;;;;;;;3.70;3.35;;;;;;;11.02;80.92;98818.38;5000447;28;20475;-85
2022/04/01 00:43:06;;;;;;;5.88;3.50;;;;;;;10.81;79.90;98792.53;5004166;28;20518;-83
2022/04/01 00:45:33;;;;;;;3.80;3.42;;;;;;;11.02;79.15;98796.28;4988363;28;20112;-84
2022/04/01 00:48:02;;;;;;;3.92;2.95;;;;;;;11.08;80.01;98811.50;4988796;28;20082;-84
2022/04/01 00:50:32;;;;;;;3.42;3.03;;;;;;;11.04;79.68;98824.28;4987702;28;20426;-84
2022/04/01 00:53:00;;;;;;;3.05;2.85;;;;;;;10.54;79.70;98735.59;4987719;28;20545;-82
2022/04/01 00:55:28;;;;;;;3.30;2.75;;;;;;;10.83;79.64;98771.94;4987352;28;20053;-83
2022/04/01 00:57:55;;;;;;;3.22;2.88;;;;;;;11.00;80.01;98799.13;4987261;28;20046;-84
2022/04/01 01:00:25;;;;;;;3.60;3.30;;;;;;;11.02;80.19;98798.94;5003692;28;20082;-84
2022/04/01 01:02:54;;;;;;;3.13;2.60;;;;;;;11.05;79.50;98798.59;4985932;28;20054;-85
2022/04/01 01:05:21;;;;;;;4.15;2.40;;;;;;;11.10;78.75;98804.16;4987202;28;20472;-84
2022/04/01 01:07:48;;;;;;;3.00;2.72;;;;;;;11.10;78.31;98799.69;5003466;28;20145;-85
2022/04/01 01:10:18;;;;;;;3.05;2.22;;;;;;;11.17;78.68;98798.97;4987209;28;20046;-83
2022/04/01 01:12:45;;;;;;;5.03;2.92;;;;;;;11.28;77.24;98791.31;4987420;28;20485;-84
2022/04/01 01:15:18;;;;;;;6.63;2.60;;;;;;;11.13;78.29;98756.00;4967561;28;20050;-84
2022/04/01 01:17:45;;;;;;;2.83;2.50;;;;;;;11.16;78.58;98768.91;4967689;28;20097;-84
2022/04/01 01:20:15;;;;;;;4.32;2.40;;;;;;;11.31;79.04;98790.13;4967592;28;20141;-84
2022/04/01 01:22:43;;;;;;;3.38;2.72;;;;;;;11.11;78.09;98764.13;4967492;28;20050;-84
2022/04/01 01:25:12;;;;;;;3.58;2.63;;;;;;;11.28;77.05;98791.31;4967540;28;20428;-84
2022/04/01 01:27:40;;;;;;;6.35;2.33;;;;;;;11.23;78.22;98791.06;4969110;28;20153;-84
2022/04/01 01:30:08;;;;;;;4.20;2.60;;;;;;;10.96;77.47;98704.09;4973602;28;20457;-84
2022/04/01 01:32:35;;;;;;;4.45;2.70;;;;;;;10.81;76.35;98667.78;4990623;28;20050;-83
2022/04/01 01:35:03;;;;;;;3.92;2.33;;;;;;;11.17;76.42;98719.28;4974575;28;20118;-84
2022/04/01 01:37:30;;;;;;;3.40;2.78;;;;;;;11.34;76.96;98748.09;4968491;28;20133;-84
2022/04/01 01:39:56;;;;;;;2.72;2.50;;;;;;;11.45;76.90;98746.75;4998645;28;20045;-83
2022/04/01 01:42:23;;;;;;;4.32;2.85;;;;;;;11.37;77.35;98738.09;5022280;28;20049;-83
2022/04/01 01:44:50;;;;;;;3.70;3.03;;;;;;;11.57;77.57;98767.53;5005697;28;20056;-84
2022/04/01 01:47:16;;;;;;;4.03;2.67;;;;;;;11.43;77.81;98747.97;5005908;28;20572;-83
2022/04/01 01:54:42;;;;;;;5.88;2.60;;;;;;;11.28;77.96;98718.78;5005771;28;20360;-84
2022/04/01 01:55:15;;;;;;;4.38;2.75;;;;;;;11.58;74.97;98756.75;5006613;28;20054;-83
2022/04/01 01:57:41;;;;;;;4.07;2.65;;;;;;;11.55;75.84;98755.28;5005830;28;20427;-83
2022/04/01 02:00:11;;;;;;;3.50;2.78;;;;;;;11.55;76.00;98735.84;5022209;28;20136;-85
2022/04/01 02:02:38;;;;;;;2.03;1.83;;;;;;;11.59;77.86;98739.78;5005978;28;20045;-85
2022/04/01 02:05:06;;;;;;;3.50;2.55;;;;;;;11.42;78.49;98727.72;5022329;28;20061;-83
2022/04/01 02:07:33;;;;;;;3.10;2.50;;;;;;;10.98;79.52;98656.97;5005609;28;20057;-83
2022/04/01 02:10:00;;;;;;;4.15;2.60;;;;;;;11.15;79.32;98694.75;5005813;28;20128;-85
2022/04/01 02:12:27;;;;;;;5.50;2.65;;;;;;;11.39;78.37;98746.72;5005798;28;20045;-83
2022/04/01 02:14:53;;;;;;;3.05;2.70;;;;;;;11.05;78.79;98689.72;5004471;28;20057;-83
2022/04/01 02:17:20;;;;;;;5.25;2.90;;;;;;;11.22;77.93;98712.38;4987593;28;20080;-84
2022/04/01 02:19:49;;;;;;;5.50;2.85;;;;;;;11.33;78.14;98741.13;4987599;28;20086;-83
2022/04/01 02:22:15;;;;;;;4.13;2.65;;;;;;;11.21;78.04;98710.72;4988394;28;20141;-83
2022/04/01 02:24:43;;;;;;;2.47;2.22;;;;;;;11.41;76.97;98748.16;5003095;28;20130;-84
2022/04/01 02:27:09;;;;;;;2.97;2.65;;;;;;;11.26;78.29;98713.66;4986128;28;20133;-84
2022/04/01 02:29:36;;;;;;;7.25;2.67;;;;;;;11.40;77.54;98735.88;4985758;28;20507;-84
2022/04/01 02:32:03;;;;;;;2.45;2.25;;;;;;;11.32;78.00;98728.84;4987433;28;20050;-84
2022/04/01 02:34:30;;;;;;;2.63;2.42;;;;;;;11.03;77.72;98686.44;4987682;28;20141;-86
2022/04/01 02:36:58;;;;;;;3.15;2.42;;;;;;;11.19;78.32;98714.59;5002394;28;20051;-83
2022/04/01 02:39:25;;;;;;;4.05;2.60;;;;;;;11.12;77.62;98727.81;4990201;28;20509;-84
2022/04/01 02:41:52;;;;;;;4.55;2.53;;;;;;;10.70;78.14;98662.94;5006456;28;20150;-86
2022/04/01 02:44:18;;;;;;;4.43;2.58;;;;;;;10.90;78.23;98695.06;5005046;28;20497;-85
2022/04/01 02:46:45;;;;;;;3.55;3.00;;;;;;;11.18;77.87;98724.38;5005222;28;20149;-84
2022/04/01 02:49:16;;;;;;;3.13;2.33;;;;;;;11.36;76.55;98723.16;5006541;28;20154;-84
2022/04/01 02:51:45;;;;;;;5.07;3.03;;;;;;;10.91;77.05;98663.00;5004842;28;20145;-84
2022/04/01 02:54:12;;;;;;;3.00;2.55;;;;;;;11.05;76.77;98697.69;5005154;28;20085;-84
2022/04/01 02:56:40;;;;;;;7.30;3.17;;;;;;;10.74;76.79;98647.47;5004983;28;20164;-84
2022/04/01 02:59:08;;;;;;;4.03;2.95;;;;;;;11.09;77.68;98714.88;5005334;28;20591;-85
2022/04/01 03:01:36;;;;;;;5.40;3.45;;;;;;;11.00;77.33;98723.97;5021457;28;20137;-82
2022/04/01 03:04:09;;;;;;;8.30;4.20;;;;;;;10.97;77.84;98724.31;5021457;28;20054;-83
2022/04/01 03:06:36;;;;;;;;;;;;;;;10.83;78.28;98724.16;5005540;28;20160;-85
2022/04/01 03:09:03;;;;;;;3.65;3.35;;;;;;;10.65;78.26;98705.13;5021424;28;19925;-85
2022/04/01 03:11:29;;;;;;;8.63;3.92;;;;;;;10.48;78.37;98678.78;5021450;28;20133;-84
2022/04/01 03:13:57;;;;;;;4.05;3.75;;;;;;;10.72;78.29;98708.69;4995915;28;20423;-84
2022/04/01 03:16:25;;;;;;;4.65;3.70;;;;;;;10.74;78.57;98725.25;4991051;28;20057;-84
2022/04/01 03:18:53;;;;;;;4.22;3.83;;;;;;;10.55;79.22;98688.66;5012412;28;20056;-85
2022/04/01 03:21:20;;;;;;;5.72;3.80;;;;;;;10.71;79.64;98720.31;4997105;28;20286;-87
2022/04/01 03:23:47;;;;;;;5.05;3.90;;;;;;;10.63;78.75;98707.13;4987702;28;20084;-84
2022/04/01 03:26:13;;;;;;;5.95;3.78;;;;;;;10.76;78.68;98717.13;4986760;28;20053;-86
2022/04/01 03:28:40;;;;;;;3.90;3.50;;;;;;;10.59;78.79;98697.91;4990293;28;20090;-84
2022/04/01 03:31:09;;;;;;;8.15;3.97;;;;;;;10.32;78.52;98668.34;4989128;28;20499;-84
2022/04/01 03:33:37;;;;;;;8.65;3.65;;;;;;;10.16;78.32;98631.34;4989071;28;20137;-84
2022/04/01 03:36:04;;;;;;;5.13;3.08;;;;;;;10.68;78.18;98705.59;5005134;28;20061;-85
2022/04/01 03:38:31;;;;;;;3.45;2.83;;;;;;;10.76;78.40;98728.56;4988636;28;20491;-85
2022/04/01 03:40:58;;;;;;;5.85;3.10;;;;;;;10.73;78.55;98720.97;5005331;28;20141;-85
2022/04/01 03:43:25;;;;;;;4.25;2.95;;;;;;;10.74;78.65;98717.28;5009674;28;20077;-84
2022/04/01 03:45:54;;;;;;;5.07;2.70;;;;;;;10.78;80.15;98725.72;5011314;28;20222;-87
2022/04/01 03:48:31;;;;;;;5.40;2.75;;;;;;;9.99;78.35;98593.59;5009631;28;20495;-84
2022/04/01 03:50:58;;;;;;;5.18;2.95;;;;;;;10.67;79.59;98700.47;5008348;28;20437;-84
2022/04/01 03:53:28;;;;;;;3.97;2.55;;;;;;;10.54;78.87;98679.06;5008271;28;20069;-85
2022/04/01 03:55:56;;;;;;;4.13;2.47;;;;;;;10.76;78.97;98711.81;5008151;28;20285;-85
2022/04/01 03:58:31;;;;;;;8.80;2.70;;;;;;;10.83;77.99;98726.81;5008067;28;20145;-85
2022/04/01 04:01:00;;;;;;;3.63;2.50;;;;;;;10.85;76.81;98721.31;5008777;28;20076;-85
2022/04/01 04:03:29;;;;;;;3.88;2.35;;;;;;;10.85;77.04;98722.16;5009230;28;20137;-84
2022/04/01 04:05:57;;;;;;;4.10;2.53;;;;;;;10.84;76.59;98715.19;5025565;28;20065;-84
2022/04/01 04:08:24;;;;;;;6.07;2.30;;;;;;;10.90;76.98;98724.25;5010148;28;20149;-84
2022/04/01 04:10:53;;;;;;;5.15;2.75;;;;;;;10.95;75.65;98719.22;5007903;28;20593;-85
2022/04/01 04:13:22;;;;;;;7.68;2.55;;;;;;;10.60;75.70;98659.75;5003316;28;20046;-83
2022/04/01 04:16:13;;;;;;;9.00;2.90;;;;;;;11.08;75.13;98727.34;4988399;28;20150;-84
2022/04/01 04:18:45;;;;;;;6.63;2.92;;;;;;;11.07;75.76;98720.38;4988077;28;20424;-82
2022/04/01 04:21:24;;;;;;;10.77;3.03;;;;;;;11.20;75.20;98718.91;5004745;28;20051;-85
2022/04/01 04:24:01;;;;;;;6.43;2.28;;;;;;;11.20;73.74;98708.28;4987907;28;20050;-86
2022/04/01 04:26:37;;;;;;;7.35;2.45;;;;;;;11.32;74.18;98720.88;4987876;28;20295;-85
2022/04/01 04:29:12;;;;;;;6.75;2.58;;;;;;;11.17;74.84;98704.16;4988099;28;20053;-85
2022/04/01 04:31:46;;;;;;;7.38;2.30;;;;;;;11.32;73.26;98728.03;4991406;28;20317;-84
2022/04/01 04:34:16;;;;;;;5.10;2.20;;;;;;;11.13;73.34;98687.75;4988991;28;20046;-85
2022/04/01 04:36:46;;;;;;;5.03;2.38;;;;;;;11.38;72.96;98715.81;5003700;28;20046;-84
2022/04/01 04:39:29;;;;;;;5.05;2.28;;;;;;;11.46;72.35;98723.69;4990312;28;20053;-84
2022/04/01 04:41:57;;;;;;;3.67;1.73;;;;;;;11.55;71.34;98733.19;5007508;28;20050;-85
2022/04/01 04:44:30;;;;;;;5.97;2.70;;;;;;;11.46;72.91;98721.84;5023512;28;20498;-85
2022/04/01 04:47:01;;;;;;;7.35;2.50;;;;;;;11.33;73.60;98714.56;5008165;28;20050;-85
2022/04/01 04:49:29;;;;;;;8.13;2.27;;;;;;;11.39;72.06;98726.28;5007162;28;20053;-84
2022/04/01 04:51:56;;;;;;;3.15;2.20;;;;;;;11.40;72.73;98730.56;5007161;28;20046;-84
2022/04/01 04:54:25;;;;;;;4.57;2.47;;;;;;;11.34;73.29;98726.84;5006818;28;20050;-85
2022/04/01 04:56:55;;;;;;;3.53;1.85;;;;;;;11.16;75.26;98707.81;5007719;28;20073;-84
2022/04/01 04:59:22;;;;;;;4.32;2.40;;;;;;;11.43;75.29;98751.47;5008285;28;20316;-82
2022/04/01 05:01:56;;;;;;;6.75;2.42;;;;;;;11.05;74.76;98695.03;5023005;28;20112;-86
2022/04/01 05:04:55;;;;;;;52.08;46.63;;;;;;;11.34;74.47;98753.41;4997491;28;20280;-85
2022/04/01 05:07:50;;;;;;;10.02;6.60;;;;;;;11.33;74.39;98751.75;4985021;28;20448;-84
2022/04/01 05:10:25;;;;;;;7.18;4.22;;;;;;;11.39;72.65;98749.38;4985510;28;20086;-84
2022/04/01 05:12:55;;;;;;;4.53;3.20;;;;;;;10.63;72.21;98632.81;4986635;28;20480;-84
2022/04/01 05:15:34;;;;;;;10.23;3.63;;;;;;;11.18;73.31;98721.72;5005444;28;20127;-84
2022/04/01 05:18:12;;;;;;;7.55;2.85;;;;;;;11.49;72.86;98760.50;5007206;28;20316;-83
2022/04/01 05:20:52;;;;;;;11.68;3.50;;;;;;;11.43;74.36;98755.94;5006381;28;20054;-84
2022/04/01 05:23:28;;;;;;;6.05;3.08;;;;;;;10.99;73.04;98703.72;5007355;28;20081;-84
2022/04/01 05:25:58;;;;;;;10.27;3.10;;;;;;;11.34;73.14;98748.09;5004229;28;20046;-84
2022/04/01 05:28:31;;;;;;;6.85;2.80;;;;;;;11.51;72.77;98761.97;5004347;28;20052;-84
2022/04/01 05:31:18;;;;;;;7.68;2.95;;;;;;;11.62;71.99;98773.94;4991829;28;20058;-85
2022/04/01 05:33:58;;;;;;;8.13;2.95;;;;;;;11.73;69.97;98776.13;4997664;28;20058;-83
2022/04/01 05:36:24;;;;;;;7.15;2.53;;;;;;;11.85;69.49;98786.25;4966551;28;20150;-82
2022/04/01 05:38:54;;;;;;;6.47;2.88;;;;;;;11.88;68.87;98770.78;4967142;28;20077;-83
2022/04/01 05:41:21;;;;;;;8.90;2.78;;;;;;;11.87;68.37;98770.94;5003786;28;20144;-84
2022/04/01 05:43:48;;;;;;;6.07;3.03;;;;;;;11.77;69.30;98766.75;4986781;28;20274;-83
2022/04/01 05:46:17;;;;;;;12.80;2.90;;;;;;;11.68;69.34;98736.00;4984166;28;20054;-82
2022/04/01 05:48:46;;;;;;;5.53;2.60;;;;;;;12.00;67.68;98765.78;4983953;28;20069;-84
2022/04/01 05:51:14;;;;;;;6.22;2.70;;;;;;;12.12;67.75;98792.69;4984140;28;20137;-83
2022/04/01 05:53:46;;;;;;;9.75;2.53;;;;;;;11.74;66.88;98718.44;4984222;28;20277;-82
2022/04/01 05:56:14;;;;;;;6.20;2.65;;;;;;;12.16;67.25;98783.28;4985582;28;20381;-81
2022/04/01 05:58:42;;;;;;;6.93;2.35;;;;;;;12.22;65.91;98784.38;4986913;28;20108;-83
2022/04/01 06:01:35;;;;;;;4.78;2.22;;;;;;;12.38;65.34;98776.16;4985955;28;20525;-83
2022/04/01 06:04:30;;;;;;;3.88;2.20;;;;;;;12.53;65.30;98795.50;4946285;28;20054;-83
2022/04/01 06:07:20;;;;;;;6.97;2.65;;;;;;;12.10;65.27;98750.31;4985622;28;20519;-84
2022/04/01 06:10:17;;;;;;;4.43;2.00;;;;;;;12.49;64.79;98814.69;4981537;28;20305;-84
2022/04/01 06:12:59;;;;;;;11.18;2.35;;;;;;;11.97;67.94;98742.22;4985771;28;20069;-83
2022/04/01 06:15:39;;;;;;;6.63;2.10;;;;;;;12.43;66.01;98815.47;4982699;28;20103;-85
2022/04/01 06:18:14;;;;;;;4.00;2.28;;;;;;;12.40;68.95;98821.97;4966972;28;20146;-83
2022/04/01 06:20:46;;;;;;;7.10;2.25;;;;;;;12.36;67.47;98810.91;4965740;28;20043;-86
2022/04/01 06:23:51;;;;;;;7.88;2.20;;;;;;;12.43;65.50;98810.13;4967301;28;20141;-85
2022/04/01 06:26:18;;;;;;;6.40;2.20;;;;;;;12.45;67.22;98819.59;4952747;28;20396;-84
2022/04/01 06:29:02;;;;;;;5.00;2.53;;;;;;;12.31;68.60;98793.88;4966559;28;20100;-85
2022/04/01 06:31:30;;;;;;;3.53;2.28;;;;;;;12.39;68.36;98804.38;4982351;28;20054;-84
2022/04/01 06:34:14;;;;;;;3.85;2.60;;;;;;;12.19;68.30;98772.28;4967827;28;20050;-84
2022/04/01 06:36:49;;;;;;;5.25;2.70;;;;;;;12.38;69.90;98797.44;4982467;28;20054;-84
2022/04/01 06:39:55;;;;;;;9.07;3.10;;;;;;;12.54;68.37;98826.41;4964780;28;20039;-85
2022/04/01 06:42:26;;;;;;;8.52;2.30;;;;;;;11.80;66.65;98693.78;4981762;28;20085;-84
2022/04/01 06:44:53;;;;;;;4.75;1.63;;;;;;;12.70;64.58;98829.81;4964325;28;20086;-85
2022/04/01 06:47:20;;;;;;;5.65;2.67;;;;;;;12.22;65.54;98757.78;4980638;28;20465;-84
2022/04/01 06:49:46;;;;;;;3.97;3.13;;;;;;;11.94;65.61;98706.22;4964808;28;20295;-86
2022/04/01 06:52:14;;;;;;;5.90;2.95;;;;;;;11.11;65.37;98572.13;4973073;28;20449;-84
2022/04/01 06:54:41;;;;;;;4.65;3.63;;;;;;;11.26;65.55;98599.47;4984236;28;20133;-85
2022/04/01 06:57:07;;;;;;;11.02;6.68;;;;;;;11.89;65.98;98705.13;4984113;28;20054;-84
2022/04/01 06:59:34;;;;;;;9.27;7.47;;;;;;;12.52;67.23;98815.13;4985251;28;20164;-85
2022/04/01 07:02:01;;;;;;;11.50;7.40;;;;;;;12.68;67.68;98856.63;4986724;28;20128;-85
2022/04/01 07:04:28;;;;;;;8.95;8.05;;;;;;;12.22;68.21;98798.50;4992287;28;20054;-84
2022/04/01 07:06:59;;;;;;;10.70;8.98;;;;;;;12.52;68.57;98847.06;4996567;28;20051;-86
2022/04/01 07:09:26;;;;;;;10.80;8.97;;;;;;;12.12;68.56;98798.81;5007077;28;20116;-86
2022/04/01 07:11:53;;;;;;;13.60;9.35;;;;;;;12.54;68.94;98866.34;5001188;28;20093;-84
2022/04/01 07:14:25;;;;;;;11.77;9.95;;;;;;;12.43;69.66;98858.88;5003166;28;20129;-84
2022/04/01 07:16:51;;;;;;;16.40;10.38;;;;;;;12.31;69.09;98833.81;5009399;28;20465;-86
2022/04/01 07:19:18;;;;;;;12.18;10.95;;;;;;;12.40;69.66;98854.75;5009259;28;20124;-85
2022/04/01 07:21:44;;;;;;;14.70;10.93;;;;;;;12.38;70.42;98858.63;5025416;28;20069;-85
2022/04/01 07:24:11;;;;;;;19.15;12.30;;;;;;;12.37;70.81;98859.63;5008637;28;20108;-83
2022/04/01 07:26:38;;;;;;;13.77;11.68;;;;;;;12.37;70.24;98851.66;5008337;28;20054;-85
2022/04/01 07:29:06;;;;;;;14.88;12.73;;;;;;;12.45;70.60;98867.50;5008455;28;20132;-84
2022/04/01 07:34:39;;;;;;;14.23;12.50;;;;;;;12.18;72.07;98850.44;5010004;28;20049;-84
2022/04/01 07:37:06;;;;;;;18.33;14.27;;;;;;;12.27;71.09;98845.81;5008485;28;20132;-85
2022/04/01 07:39:34;;;;;;;18.70;13.73;;;;;;;12.34;71.58;98875.97;5003416;28;20255;-84
2022/04/01 07:42:01;;;;;;;16.23;13.25;;;;;;;11.71;72.03;98785.28;4989202;28;20055;-83
2022/04/01 07:44:27;;;;;;;15.20;12.95;;;;;;;11.82;71.83;98787.47;4990130;28;20145;-84
2022/04/01 07:46:55;;;;;;;16.15;14.30;;;;;;;11.96;71.74;98804.38;4988967;28;20073;-84
2022/04/01 07:49:22;;;;;;;18.20;15.13;;;;;;;12.15;72.38;98841.00;5005012;28;20081;-84
2022/04/01 07:52:10;;;;;;;15.25;13.75;;;;;;;12.39;71.86;98852.28;4988224;28;20263;-83
2022/04/01 07:54:46;;;;;;;16.02;14.15;;;;;;;11.88;72.84;98772.63;4988858;28;20074;-84
2022/04/01 07:57:13;;;;;;;15.57;13.98;;;;;;;11.93;72.30;98772.88;5006145;28;20050;-84
2022/04/01 07:59:40;;;;;;;18.95;14.32;;;;;;;12.32;72.06;98835.44;5005892;28;20112;-86
2022/04/01 08:02:08;;;;;;;20.55;14.07;;;;;;;12.44;72.02;98849.88;5006039;28;20113;-85
2022/04/01 08:04:35;;;;;;;17.58;12.77;;;;;;;12.55;72.32;98864.53;5008761;28;20061;-84
2022/04/01 08:07:07;;;;;;;16.95;12.70;;;;;;;12.27;71.14;98806.72;5012211;28;20054;-86
2022/04/01 08:09:36;;;;;;;17.17;12.57;;;;;;;12.48;71.00;98837.84;5010777;28;20056;-83
2022/04/01 08:12:03;;;;;;;14.10;12.15;;;;;;;12.71;70.14;98866.88;4990666;28;20042;-83
2022/04/01 08:14:30;;;;;;;19.50;12.23;;;;;;;12.50;70.47;98819.00;5012632;28;20072;-84
2022/04/01 08:16:56;;;;;;;15.75;13.68;;;;;;;12.70;70.69;98835.97;5018498;28;20339;-85
2022/04/01 08:19:24;;;;;;;16.08;14.40;;;;;;;12.72;71.14;98851.72;5019701;28;20057;-86
2022/04/01 08:21:50;;;;;;;15.68;14.10;;;;;;;12.64;71.01;98828.72;5017393;28;20389;-85
2022/04/01 08:24:17;;;;;;;18.00;15.27;;;;;;;13.00;70.94;98868.53;5007951;28;20085;-84
2022/04/01 08:26:44;;;;;;;17.13;15.30;;;;;;;12.81;71.14;98840.75;5008469;28;20542;-86
2022/04/01 08:29:11;;;;;;;17.65;15.50;;;;;;;13.01;70.89;98861.38;5010049;28;20041;-86
2022/04/01 08:31:37;;;;;;;19.08;15.52;;;;;;;12.67;71.79;98809.75;5008184;28;20145;-83
2022/04/01 08:34:04;;;;;;;19.88;15.02;;;;;;;12.86;71.94;98834.03;5009999;28;20049;-87
2022/04/01 08:36:31;;;;;;;17.48;15.80;;;;;;;13.22;72.14;98884.47;5008799;28;20108;-85
2022/04/01 08:38:57;;;;;;;18.65;16.92;;;;;;;13.21;72.27;98872.19;5008531;28;20389;-85
2022/04/01 08:41:24;;;;;;;20.13;16.92;;;;;;;13.14;72.36;98868.66;5008207;28;20575;-85
2022/04/01 08:43:52;;;;;;;17.55;15.77;;;;;;;13.00;71.60;98828.59;5009008;28;20049;-83
2022/04/01 08:46:21;;;;;;;17.95;15.88;;;;;;;13.28;71.48;98861.56;5009498;28;20523;-84
2022/04/01 08:48:49;;;;;;;18.10;15.35;;;;;;;13.37;71.68;98881.72;5008234;28;20050;-85
2022/04/01 08:51:17;;;;;;;20.75;14.70;;;;;;;13.10;71.17;98838.06;5008858;28;20463;-86
2022/04/01 08:53:45;;;;;;;15.40;13.90;;;;;;;13.40;70.77;98882.16;5007893;28;20131;-84
2022/04/01 08:56:12;;;;;;;16.23;14.57;;;;;;;13.49;70.59;98890.81;5007120;28;20070;-84
2022/04/01 08:58:39;;;;;;;16.10;14.52;;;;;;;13.51;70.48;98898.59;5007237;28;20554;-85
2022/04/01 09:01:07;;;;;;;20.48;13.90;;;;;;;13.58;70.40;98899.47;5007635;28;20512;-85
2022/04/01 09:03:35;;;;;;;15.85;14.25;;;;;;;13.66;69.88;98897.44;5007068;28;20280;-85
2022/04/01 09:06:05;;;;;;;18.00;14.38;;;;;;;13.92;69.01;98905.78;5007667;28;20475;-83
2022/04/01 09:08:35;;;;;;;15.85;13.55;;;;;;;13.98;67.51;98908.47;5007575;28;20097;-83
2022/04/01 09:11:17;;;;;;;18.38;14.18;;;;;;;13.95;68.58;98881.38;5006795;28;20057;-83
2022/04/01 09:13:44;;;;;;;16.42;13.48;;;;;;;14.04;67.66;98909.53;4999392;28;20077;-83
2022/04/01 09:16:32;;;;;;;15.07;13.68;;;;;;;14.07;67.08;98895.78;4994197;28;20468;-85
2022/04/01 09:19:04;;;;;;;13.60;12.30;;;;;;;14.14;67.28;98899.28;5003466;28;20060;-85
2022/04/01 09:21:37;;;;;;;14.65;11.18;;;;;;;14.19;66.49;98888.00;4987167;28;20133;-86
2022/04/01 09:24:03;;;;;;;;;;;;;;;14.26;66.48;98897.66;4987194;28;20377;-84
2022/04/01 09:26:35;;;;;;;16.00;13.95;;;;;;;14.60;67.44;98885.22;4988952;28;19925;-85
2022/04/01 09:29:04;;;;;;;14.82;13.25;;;;;;;14.29;66.82;98806.50;4988653;28;20096;-87
2022/04/01 09:31:37;;;;;;;12.82;11.25;;;;;;;14.79;66.15;98886.28;4986499;28;20050;-86
2022/04/01 09:34:12;;;;;;;10.02;5.60;;;;;;;15.24;56.94;98861.53;4989180;28;20672;-86
2022/04/01 09:36:41;;;;;;;7.38;6.50;;;;;;;15.31;56.16;98851.66;4987135;28;20050;-86
2022/04/01 09:39:17;;;;;;;8.88;3.72;;;;;;;15.18;52.49;98805.22;5004687;28;20507;-85
2022/04/01 09:41:49;;;;;;;6.47;3.15;;;;;;;15.91;48.33;98865.66;5007635;28;20143;-86
2022/04/01 09:44:36;;;;;;;5.18;3.50;;;;;;;16.11;49.64;98870.91;5007105;28;20133;-86
2022/04/01 09:47:07;;;;;;;6.82;4.70;;;;;;;15.84;48.41;98770.41;5023165;28;20146;-85
2022/04/01 09:49:39;;;;;;;4.72;2.90;;;;;;;16.61;47.08;98878.22;4998369;28;20053;-86
2022/04/01 09:52:09;;;;;;;7.95;2.97;;;;;;;16.32;45.00;98821.56;4987441;28;20319;-85
2022/04/01 09:54:47;;;;;;;7.25;3.08;;;;;;;16.78;43.51;98865.97;5002096;28;20073;-84
2022/04/01 09:57:15;;;;;;;15.07;3.22;;;;;;;16.70;44.51;98817.13;4987070;28;20382;-86
2022/04/01 09:59:43;;;;;;;3.85;2.70;;;;;;;16.66;43.94;98784.63;5002525;28;20104;-87
2022/04/01 10:02:10;;;;;;;5.30;2.75;;;;;;;17.48;41.56;98883.66;4984994;28;20141;-86
2022/04/01 10:04:37;;;;;;;5.18;2.70;;;;;;;17.57;42.39;98871.56;4987772;28;20141;-83
2022/04/01 10:07:05;;;;;;;4.55;2.72;;;;;;;17.53;42.84;98859.66;4986324;28;20054;-86
2022/04/01 10:09:32;;;;;;;16.23;3.13;;;;;;;17.59;42.73;98849.88;4967092;28;20485;-84
2022/04/01 10:12:23;;;;;;;4.53;2.50;;;;;;;17.35;42.10;98797.97;4968000;28;20586;-86
2022/04/01 10:14:54;;;;;;;8.60;3.05;;;;;;;17.89;41.14;98861.53;5000998;28;20108;-86
2022/04/01 10:17:28;;;;;;;6.75;2.80;;;;;;;16.66;42.57;98656.03;5010568;28;20504;-85
2022/04/01 10:19:57;;;;;;;5.97;3.03;;;;;;;16.96;41.76;98682.09;5015148;28;20105;-86
2022/04/01 10:22:25;;;;;;;4.82;3.20;;;;;;;16.83;41.25;98662.47;5014549;28;20050;-86
2022/04/01 10:25:04;;;;;;;4.82;2.88;;;;;;;17.70;40.85;98785.56;5013788;28;20050;-85
2022/04/01 10:27:40;;;;;;;7.50;3.63;;;;;;;17.84;41.05;98793.44;5008239;28;20054;-85
2022/04/01 10:30:11;;;;;;;5.45;2.97;;;;;;;17.77;40.10;98768.53;5011433;28;20050;-84
2022/04/01 10:32:41;;;;;;;7.30;3.38;;;;;;;18.25;40.79;98848.22;5004866;28;20065;-84
2022/04/01 10:35:21;;;;;;;5.20;3.40;;;;;;;17.76;40.98;98756.16;5021605;28;20115;-86
2022/04/01 10:37:54;;;;;;;6.50;3.50;;;;;;;17.97;40.52;98793.28;5004808;28;20669;-86
2022/04/01 10:40:30;;;;;;;9.15;3.63;;;;;;;17.97;40.68;98801.31;4993759;28;20237;-85
2022/04/01 10:43:19;;;;;;;10.38;4.07;;;;;;;17.52;40.72;98730.06;5001715;28;20443;-84
2022/04/01 10:46:10;;;;;;;7.22;2.95;;;;;;;18.40;39.87;98886.25;4987190;28;20054;-85
2022/04/01 10:51:37;;;;;;;8.20;2.80;;;;;;;17.98;38.78;98794.06;4986678;28;20487;-83
2022/04/01 10:54:12;;;;;;;5.65;3.03;;;;;;;18.40;39.36;98882.72;4986432;28;20058;-84
2022/04/01 10:57:00;;;;;;;10.70;3.65;;;;;;;18.17;39.57;98864.66;4985996;28;20691;-84
2022/04/01 10:59:29;;;;;;;9.38;3.42;;;;;;;18.28;39.61;98885.38;4986382;28;20058;-84
2022/04/01 11:01:59;;;;;;;7.70;3.08;;;;;;;18.24;40.30;98885.00;4984776;28;20121;-84
2022/04/01 11:04:37;;;;;;;8.15;3.58;;;;;;;18.29;38.66;98890.50;4986477;28;20141;-86
2022/04/01 11:07:29;;;;;;;8.82;3.25;;;;;;;17.98;39.61;98839.72;4989994;28;20122;-84
2022/04/01 11:10:01;;;;;;;4.88;3.22;;;;;;;18.08;40.20;98889.16;5005202;28;20050;-85
2022/04/01 11:12:32;;;;;;;;;;;;;;;18.06;39.88;98891.25;4985694;28;20054;-85
2022/04/01 11:14:59;;;;;;;5.30;2.67;;;;;;;18.02;40.27;98895.44;5002192;28;20029;-85
2022/04/01 11:17:38;;;;;;;9.05;3.00;;;;;;;17.84;40.84;98892.75;5003991;28;20061;-85
2022/04/01 11:20:09;;;;;;;9.13;3.05;;;;;;;17.88;40.41;98899.31;5008085;28;20061;-86
2022/04/01 11:22:40;;;;;;;9.60;3.28;;;;;;;17.55;40.87;98848.69;4994466;28;20088;-85
2022/04/01 11:25:12;;;;;;;9.52;2.83;;;;;;;17.71;41.15;98883.78;4988374;28;20117;-85
2022/04/01 11:27:50;;;;;;;11.13;2.78;;;;;;;16.66;40.46;98704.25;4986928;28;20086;-85
2022/04/01 11:30:20;;;;;;;4.38;2.60;;;;;;;16.93;40.98;98741.53;4985543;28;20121;-86
2022/04/01 11:32:52;;;;;;;6.05;2.85;;;;;;;17.83;41.76;98901.84;4986370;28;20073;-86
2022/04/01 11:35:24;;;;;;;5.13;2.78;;;;;;;17.66;39.73;98848.75;4986377;28;20035;-84
2022/04/01 11:37:51;;;;;;;4.88;2.95;;;;;;;17.93;40.04;98904.81;4988274;28;20130;-85
2022/04/01 11:40:25;;;;;;;12.57;3.53;;;;;;;17.20;39.23;98779.56;4995483;28;20454;-85
2022/04/01 11:42:53;;;;;;;10.20;3.03;;;;;;;17.80;40.87;98886.19;5004189;28;20521;-85
2022/04/01 11:45:21;;;;;;;5.90;2.50;;;;;;;17.81;40.04;98890.53;5003197;28;20255;-85
2022/04/01 11:47:48;;;;;;;6.93;2.70;;;;;;;17.83;40.14;98891.94;5022373;28;20164;-84
2022/04/01 11:50:17;;;;;;;8.10;3.03;;;;;;;17.65;40.35;98860.53;5009281;28;20423;-84
2022/04/01 11:52:46;;;;;;;5.60;2.72;;;;;;;17.75;40.37;98875.31;5008157;28;20154;-85
2022/04/01 11:55:19;;;;;;;12.30;3.35;;;;;;;17.69;40.35;98869.78;5023924;28;20514;-82